Time;durP1;ratioP1;P1;durP2;ratioP2;P2;SDS_P1;SDS_P2;PMS_P1;PMS_P2;Temp;Humidity;BMP_temperature;BMP_pressure;BME280_temperature;BME280_humidity;BME280_pressure;Samples;Min_cycle;Max_cycle;Signal;HPM_P1;HPM_P2
2022/01/26 00:05:44;;;;;;;63.55;41.53;;;2.30;99.90;;;;;;4950223;29;20468;-85
2022/01/26 00:06:28;;;;;;;68.47;42.60;;;2.50;99.90;;;;;;4940408;29;20126;-86
2022/01/26 00:08:54;;;;;;;62.70;42.53;;;2.20;99.90;;;;;;4940450;29;20508;-86
2022/01/26 00:11:20;;;;;;;64.45;42.17;;;2.20;99.90;;;;;;4940061;29;20032;-85
2022/01/26 00:13:45;;;;;;;64.97;41.95;;;2.30;99.90;;;;;;4939923;29;20045;-85
2022/01/26 00:16:26;;;;;;;65.63;42.83;;;2.30;99.90;;;;;;4935974;29;20546;-85
2022/01/26 00:18:55;;;;;;;68.22;42.42;;;2.30;99.90;;;;;;4938118;29;20090;-85
2022/01/26 00:21:41;;;;;;;59.67;40.30;;;2.30;99.90;;;;;;4938609;29;20046;-85
2022/01/26 00:25:05;;;;;;;61.78;41.40;;;2.30;99.90;;;;;;4939937;29;20046;-85
2022/01/26 00:27:06;;;;;;;61.47;40.67;;;2.20;99.90;;;;;;4930497;29;20493;-86
2022/01/26 00:29:37;;;;;;;64.03;41.28;;;2.00;99.90;;;;;;4939575;29;20549;-85
2022/01/26 00:40:15;;;;;;;61.10;40.60;;;2.80;99.90;;;;;;4936233;29;20054;-85
2022/01/26 00:42:43;;;;;;;65.82;41.70;;;2.20;99.90;;;;;;4939037;29;20063;-85
2022/01/26 00:45:09;;;;;;;63.80;42.47;;;2.90;99.90;;;;;;4939412;29;20103;-85
2022/01/26 00:47:36;;;;;;;64.00;42.47;;;2.20;99.90;;;;;;4939467;29;20536;-85
2022/01/26 00:50:06;;;;;;;66.00;43.75;;;2.40;99.90;;;;;;4939119;29;20031;-85
2022/01/26 00:52:40;;;;;;;89.13;54.72;;;2.60;99.90;;;;;;4937768;29;20038;-85
2022/01/26 00:55:10;;;;;;;105.78;66.45;;;2.70;99.90;;;;;;4935256;29;20522;-85
2022/01/26 00:57:35;;;;;;;86.53;56.13;;;2.80;99.90;;;;;;4945714;29;20415;-85
2022/01/26 01:00:03;;;;;;;84.53;54.17;;;2.80;99.90;;;;;;4939730;29;20030;-85
2022/01/26 01:02:31;;;;;;;85.78;53.40;;;2.90;99.90;;;;;;4939245;29;20036;-85
2022/01/26 01:04:59;;;;;;;76.95;49.63;;;3.00;99.90;;;;;;4938633;29;20024;-85
2022/01/26 01:07:25;;;;;;;71.25;47.47;;;2.80;99.90;;;;;;4936613;29;20063;-85
2022/01/26 01:09:51;;;;;;;65.03;43.05;;;3.00;99.90;;;;;;4937451;29;20051;-85
2022/01/26 01:12:16;;;;;;;65.07;41.40;;;2.70;99.90;;;;;;4939452;29;20047;-86
2022/01/26 01:14:44;;;;;;;63.95;40.30;;;2.60;99.90;;;;;;4938387;29;20039;-85
2022/01/26 01:17:20;;;;;;;65.38;41.47;;;2.50;99.90;;;;;;4939414;29;20175;-85
2022/01/26 01:20:03;;;;;;;60.08;41.25;;;1.90;99.90;;;;;;4938744;29;20061;-85
2022/01/26 01:25:53;;;;;;;63.03;41.05;;;2.60;99.90;;;;;;4920649;29;20075;-85
2022/01/26 01:30:35;;;;;;;60.47;40.28;;;2.80;99.90;;;;;;4939453;29;20031;-85
2022/01/26 01:33:07;;;;;;;64.38;42.35;;;2.80;99.90;;;;;;4938423;29;20047;-85
2022/01/26 01:35:36;;;;;;;62.65;41.30;;;2.80;99.90;;;;;;4922618;29;20600;-86
2022/01/26 01:38:09;;;;;;;67.45;42.75;;;2.30;99.90;;;;;;4922719;29;20082;-85
2022/01/26 01:40:39;;;;;;;64.50;42.00;;;2.60;99.90;;;;;;4937211;28;20460;-84
2022/01/26 01:43:06;;;;;;;70.03;43.00;;;2.70;99.90;;;;;;4934810;29;20048;-85
2022/01/26 01:45:35;;;;;;;69.55;43.20;;;2.90;99.90;;;;;;4939012;29;20036;-86
2022/01/26 01:48:02;;;;;;;74.60;44.70;;;2.80;99.90;;;;;;4938339;29;20113;-86
2022/01/26 01:50:28;;;;;;;87.68;47.38;;;2.70;99.90;;;;;;4938297;29;20031;-86
2022/01/26 01:53:01;;;;;;;98.28;49.67;;;2.80;99.90;;;;;;4938137;29;20043;-86
2022/01/26 01:55:29;;;;;;;129.30;52.40;;;2.90;99.90;;;;;;4936222;29;20110;-86
2022/01/26 01:57:56;;;;;;;334.48;62.33;;;2.70;99.90;;;;;;4935970;29;20036;-85
2022/01/26 02:00:26;;;;;;;154.68;61.53;;;3.10;99.90;;;;;;4939128;29;20465;-86
2022/01/26 02:02:53;;;;;;;134.75;58.85;;;2.50;99.90;;;;;;4937780;29;20407;-85
2022/01/26 02:05:19;;;;;;;211.45;59.58;;;2.50;99.90;;;;;;4938008;29;20023;-85
2022/01/26 02:07:45;;;;;;;200.75;58.13;;;2.30;99.90;;;;;;4938433;29;20086;-85
2022/01/26 02:10:11;;;;;;;156.02;57.35;;;2.30;99.90;;;;;;4933844;29;20028;-85
2022/01/26 02:12:42;;;;;;;156.70;57.20;;;2.30;99.90;;;;;;4938701;29;20044;-85
2022/01/26 02:15:15;;;;;;;133.43;60.00;;;2.40;99.90;;;;;;4937896;29;20019;-85
2022/01/26 02:53:46;;;;;;;262.67;54.33;;;2.20;99.90;;;;;;4873547;29;20608;-86
2022/01/26 02:57:07;;;;;;;145.25;55.72;;;1.50;99.90;;;;;;4873415;29;20450;-85
2022/01/26 03:06:38;;;;;;;157.45;54.22;;;1.50;99.90;;;;;;4875336;29;20033;-85
2022/01/26 03:09:10;;;;;;;135.18;53.60;;;1.20;99.90;;;;;;4873458;29;20076;-86
2022/01/26 03:11:38;;;;;;;135.15;54.45;;;0.70;99.90;;;;;;4873185;29;20044;-86
2022/01/26 03:14:17;;;;;;;139.68;53.58;;;1.00;99.90;;;;;;4873246;29;20041;-86
2022/01/26 03:16:49;;;;;;;104.07;49.65;;;0.90;99.90;;;;;;4872875;29;20029;-86
2022/01/26 03:19:30;;;;;;;102.65;51.15;;;0.90;99.90;;;;;;4872525;29;20073;-85
2022/01/26 03:30:02;;;;;;;124.95;50.92;;;0.80;99.90;;;;;;4937604;29;20038;-85
2022/01/26 03:35:41;;;;;;;117.25;52.85;;;0.60;99.90;;;;;;4940773;29;20039;-85
2022/01/26 03:38:00;;;;;;;149.88;52.45;;;0.70;99.90;;;;;;4939502;29;20496;-86
2022/01/26 03:40:32;;;;;;;125.88;49.92;;;0.30;99.90;;;;;;4922667;29;20112;-85
2022/01/26 03:42:58;;;;;;;105.65;48.55;;;0.10;99.90;;;;;;4937555;29;20142;-85
2022/01/26 03:45:25;;;;;;;108.00;49.63;;;-0.10;99.90;;;;;;4941139;29;20031;-85
2022/01/26 03:47:51;;;;;;;90.38;48.47;;;0.50;99.90;;;;;;4940402;29;20059;-86
2022/01/26 03:50:17;;;;;;;102.85;50.33;;;0.10;99.90;;;;;;4924955;29;20058;-85
2022/01/26 03:52:42;;;;;;;85.40;48.55;;;0.00;99.90;;;;;;4940985;29;20035;-85
2022/01/26 03:55:09;;;;;;;90.07;47.78;;;-0.10;99.90;;;;;;4919416;29;20516;-85
2022/01/26 03:57:34;;;;;;;88.20;47.35;;;-0.30;99.90;;;;;;4940869;29;20035;-86
2022/01/26 04:00:00;;;;;;;82.00;46.80;;;-0.20;99.90;;;;;;4939909;29;20448;-86
2022/01/26 04:02:25;;;;;;;106.82;47.08;;;0.00;99.90;;;;;;4924735;29;20059;-85
2022/01/26 04:04:57;;;;;;;85.68;47.47;;;-0.10;99.90;;;;;;4940204;29;20081;-85
2022/01/26 04:07:23;;;;;;;87.80;48.35;;;-0.20;99.90;;;;;;4937656;29;20028;-86
2022/01/26 04:09:48;;;;;;;87.43;47.78;;;0.10;99.90;;;;;;4938865;29;20031;-85
2022/01/26 04:12:14;;;;;;;100.03;46.88;;;0.20;99.90;;;;;;4940368;29;20464;-85
2022/01/26 04:14:43;;;;;;;88.55;47.85;;;0.40;99.90;;;;;;4940111;29;20055;-85
2022/01/26 04:17:09;;;;;;;84.53;46.40;;;0.50;99.90;;;;;;4923984;29;20035;-86
2022/01/26 04:19:37;;;;;;;76.00;44.88;;;0.60;99.90;;;;;;4939370;29;20114;-86
2022/01/26 04:22:15;;;;;;;84.47;45.75;;;0.50;99.90;;;;;;4936710;29;20031;-85
2022/01/26 04:24:47;;;;;;;85.22;45.92;;;0.40;99.90;;;;;;4938521;28;20114;-85
2022/01/26 04:27:37;;;;;;;75.18;45.65;;;0.60;99.90;;;;;;4923933;29;20099;-85
2022/01/26 04:30:03;;;;;;;80.70;44.47;;;0.60;99.90;;;;;;4939115;29;20027;-85
2022/01/26 04:32:28;;;;;;;78.80;44.25;;;0.70;99.90;;;;;;4939843;29;20451;-86
2022/01/26 04:34:56;;;;;;;81.07;45.08;;;0.10;99.90;;;;;;4924197;29;20162;-85
2022/01/26 04:37:41;;;;;;;83.95;45.63;;;0.50;99.90;;;;;;4936685;29;20508;-86
2022/01/26 04:40:11;;;;;;;74.35;43.72;;;0.50;99.90;;;;;;4935610;29;20023;-85
2022/01/26 04:42:48;;;;;;;75.90;44.10;;;0.50;99.90;;;;;;4945712;29;20046;-85
2022/01/26 04:45:14;;;;;;;74.15;44.85;;;0.70;99.90;;;;;;4939230;29;20035;-85
2022/01/26 04:47:40;;;;;;;98.95;43.97;;;0.60;99.90;;;;;;4939452;29;20023;-85
2022/01/26 04:50:08;;;;;;;76.75;44.45;;;0.60;99.90;;;;;;4939262;29;20119;-86
2022/01/26 04:52:34;;;;;;;71.80;42.45;;;0.80;99.90;;;;;;4937978;29;20074;-85
2022/01/26 04:55:00;;;;;;;75.75;44.60;;;0.80;99.90;;;;;;4936597;29;20047;-85
2022/01/26 04:57:25;;;;;;;72.78;43.47;;;1.10;99.90;;;;;;4939586;29;20051;-85
2022/01/26 04:59:51;;;;;;;69.88;42.47;;;1.70;99.90;;;;;;4939302;29;20111;-85
2022/01/26 05:02:17;;;;;;;68.40;41.70;;;1.20;99.90;;;;;;4939304;29;20111;-85
2022/01/26 05:04:42;;;;;;;73.85;42.20;;;1.10;99.90;;;;;;4939413;29;20395;-85
2022/01/26 05:07:08;;;;;;;68.13;42.33;;;1.10;99.90;;;;;;4919607;29;20027;-86
2022/01/26 05:09:34;;;;;;;213.88;47.63;;;1.30;99.90;;;;;;4939605;29;20469;-85
2022/01/26 05:12:01;;;;;;;91.93;44.78;;;1.80;99.90;;;;;;4938692;29;20038;-85
2022/01/26 05:14:27;;;;;;;76.45;43.03;;;1.20;99.90;;;;;;4938933;29;20519;-86
2022/01/26 05:16:53;;;;;;;71.95;44.25;;;1.90;99.90;;;;;;4938851;29;20047;-85
2022/01/26 05:19:18;;;;;;;67.63;42.67;;;1.30;99.90;;;;;;4935533;29;20169;-85
2022/01/26 05:21:44;;;;;;;76.22;43.13;;;1.30;99.90;;;;;;4938020;29;20028;-85
2022/01/26 05:24:10;;;;;;;74.60;42.38;;;1.40;99.90;;;;;;4939458;29;20031;-85
2022/01/26 05:26:38;;;;;;;88.57;44.15;;;1.30;99.90;;;;;;4938573;29;20036;-85
2022/01/26 05:29:04;;;;;;;87.55;45.33;;;1.40;99.90;;;;;;4938485;29;20059;-85
2022/01/26 05:31:29;;;;;;;122.50;49.67;;;1.40;99.90;;;;;;4936768;29;20036;-86
2022/01/26 05:33:56;;;;;;;239.30;53.28;;;1.30;99.90;;;;;;4936628;29;20047;-85
2022/01/26 05:36:21;;;;;;;294.60;53.97;;;1.20;99.90;;;;;;4937440;29;20030;-85
2022/01/26 05:38:47;;;;;;;122.07;50.15;;;1.10;99.90;;;;;;4938358;29;20447;-85
2022/01/26 05:41:13;;;;;;;137.30;50.95;;;1.00;99.90;;;;;;4922139;29;20034;-84
2022/01/26 05:43:38;;;;;;;172.73;51.95;;;0.60;99.90;;;;;;4938221;29;20066;-85
2022/01/26 05:46:10;;;;;;;136.68;51.20;;;0.50;99.90;;;;;;4935228;29;20405;-85
2022/01/26 05:48:42;;;;;;;196.98;51.35;;;0.20;99.90;;;;;;4938922;29;20032;-86
2022/01/26 05:51:09;;;;;;;113.63;51.63;;;0.50;99.90;;;;;;4938404;29;20028;-87
2022/01/26 05:53:36;;;;;;;113.25;51.78;;;1.30;99.90;;;;;;4937901;28;20051;-86
2022/01/26 05:56:02;;;;;;;142.57;51.47;;;0.90;99.90;;;;;;4938314;29;20587;-88
2022/01/26 05:58:28;;;;;;;124.57;52.35;;;1.20;99.90;;;;;;4936324;29;20037;-83
2022/01/26 06:00:54;;;;;;;110.00;51.35;;;1.80;99.90;;;;;;4936665;29;20075;-88
2022/01/26 06:03:20;;;;;;;122.93;51.08;;;1.60;99.90;;;;;;4939297;29;20039;-90
2022/01/26 06:05:46;;;;;;;122.10;52.17;;;0.90;99.90;;;;;;4938171;29;20031;-88
2022/01/26 06:08:11;;;;;;;149.73;52.10;;;0.70;99.90;;;;;;4937857;29;20044;-85
2022/01/26 06:10:37;;;;;;;115.25;51.50;;;1.00;99.90;;;;;;4937519;29;20519;-85
2022/01/26 06:13:02;;;;;;;109.45;50.05;;;0.90;99.90;;;;;;4934827;29;20122;-88
2022/01/26 06:15:28;;;;;;;135.88;52.47;;;0.80;99.90;;;;;;4937581;29;20035;-88
2022/01/26 06:17:54;;;;;;;111.55;52.58;;;0.60;99.90;;;;;;4938113;29;20042;-89
2022/01/26 06:20:19;;;;;;;120.30;52.17;;;0.40;99.90;;;;;;4938112;29;20051;-87
2022/01/26 06:22:45;;;;;;;205.23;55.15;;;0.30;99.90;;;;;;4922669;29;20396;-89
2022/01/26 06:25:11;;;;;;;144.65;54.78;;;0.30;99.90;;;;;;4933817;29;20039;-88
2022/01/26 06:27:39;;;;;;;123.70;51.03;;;0.60;99.90;;;;;;4945756;29;20034;-89
2022/01/26 06:30:07;;;;;;;120.22;51.05;;;0.60;99.90;;;;;;4921465;29;20122;-89
2022/01/26 06:32:34;;;;;;;115.75;53.47;;;0.50;99.90;;;;;;4937730;29;20032;-88
2022/01/26 06:35:00;;;;;;;120.50;51.08;;;0.50;99.90;;;;;;4922049;29;20039;-88
2022/01/26 06:37:26;;;;;;;105.15;51.88;;;0.40;99.90;;;;;;4936211;29;20034;-88
2022/01/26 06:39:51;;;;;;;122.32;52.70;;;0.30;99.90;;;;;;4918552;29;20035;-88
2022/01/26 06:42:22;;;;;;;98.35;50.90;;;0.50;99.90;;;;;;4938312;29;20107;-87
2022/01/26 06:45:12;;;;;;;90.57;48.25;;;0.60;99.90;;;;;;4937699;29;20268;-88
2022/01/26 06:47:51;;;;;;;93.80;48.63;;;1.20;99.90;;;;;;4937086;29;20530;-88
2022/01/26 06:50:18;;;;;;;98.43;48.38;;;0.60;99.90;;;;;;4922193;29;20019;-88
2022/01/26 06:52:46;;;;;;;90.97;46.45;;;0.60;99.90;;;;;;4937195;29;20399;-88
2022/01/26 06:55:12;;;;;;;96.05;45.55;;;0.80;99.90;;;;;;4933561;29;20034;-88
2022/01/26 06:57:38;;;;;;;104.35;45.72;;;0.80;99.90;;;;;;4928173;29;20086;-88
2022/01/26 07:00:05;;;;;;;250.38;46.35;;;0.60;99.90;;;;;;4937753;29;20035;-88
2022/01/26 07:02:30;;;;;;;121.05;44.25;;;0.60;99.90;;;;;;4938254;29;20103;-88
2022/01/26 07:04:56;;;;;;;70.00;41.75;;;0.60;99.90;;;;;;4922888;29;20106;-88
2022/01/26 07:07:22;;;;;;;105.90;46.42;;;1.10;99.90;;;;;;4938332;29;20031;-88
2022/01/26 07:09:47;;;;;;;75.28;41.40;;;0.80;99.90;;;;;;4923011;29;20207;-88
2022/01/26 07:12:13;;;;;;;74.72;42.80;;;0.70;99.90;;;;;;4941194;29;20043;-89
2022/01/26 07:22:39;;;;;;;93.75;43.70;;;0.60;99.90;;;;;;4940330;29;20031;-88
2022/01/26 07:25:05;;;;;;;85.60;41.90;;;0.80;99.90;;;;;;4937727;29;20079;-87
2022/01/26 07:27:31;;;;;;;70.47;39.08;;;1.00;99.90;;;;;;4941698;29;20444;-88
2022/01/26 07:29:58;;;;;;;76.05;40.40;;;1.00;99.90;;;;;;4924828;29;20035;-88
2022/01/26 07:32:26;;;;;;;62.88;36.45;;;1.20;99.90;;;;;;4940777;29;20031;-88
2022/01/26 07:34:51;;;;;;;72.22;36.75;;;0.70;99.90;;;;;;4941126;29;20039;-88
2022/01/26 07:37:18;;;;;;;76.35;38.17;;;0.60;99.90;;;;;;4936917;29;20082;-88
2022/01/26 07:39:48;;;;;;;72.55;37.22;;;0.70;99.90;;;;;;4940625;29;20103;-88
2022/01/26 07:42:14;;;;;;;66.20;38.38;;;0.70;99.90;;;;;;4941137;29;20063;-84
2022/01/26 07:44:41;;;;;;;65.95;38.00;;;1.30;99.90;;;;;;4940996;29;20467;-87
2022/01/26 07:47:07;;;;;;;63.33;38.13;;;1.40;99.90;;;;;;4925971;29;20024;-91
2022/01/26 07:49:32;;;;;;;121.40;37.88;;;0.90;99.90;;;;;;4939408;29;20393;-85
2022/01/26 07:51:58;;;;;;;70.60;37.85;;;0.70;99.90;;;;;;4937309;29;20038;-85
2022/01/26 07:54:24;;;;;;;108.22;39.22;;;0.70;99.90;;;;;;4941481;29;20031;-90
2022/01/26 07:56:50;;;;;;;66.28;37.58;;;0.60;99.90;;;;;;4940371;29;20493;-87
2022/01/26 07:59:16;;;;;;;75.95;39.95;;;1.40;99.90;;;;;;4940482;29;20035;-87
2022/01/26 08:01:41;;;;;;;67.93;37.38;;;1.10;99.90;;;;;;4939816;29;20027;-87
2022/01/26 08:04:07;;;;;;;113.57;37.25;;;1.30;99.90;;;;;;4937027;29;20016;-87
2022/01/26 08:06:32;;;;;;;168.57;38.38;;;1.10;99.90;;;;;;4940379;29;20039;-87
2022/01/26 08:08:58;;;;;;;97.95;36.05;;;1.00;99.90;;;;;;4940275;29;20401;-87
2022/01/26 08:11:24;;;;;;;151.35;38.33;;;1.50;99.90;;;;;;4940741;29;20118;-87
2022/01/26 08:13:51;;;;;;;185.07;38.65;;;1.00;99.90;;;;;;4940040;29;20114;-87
2022/01/26 08:16:17;;;;;;;148.70;39.58;;;1.00;99.90;;;;;;4936280;29;20492;-87
2022/01/26 08:18:42;;;;;;;92.05;36.13;;;1.00;99.90;;;;;;4922403;29;20056;-87
2022/01/26 08:21:08;;;;;;;82.13;39.50;;;1.10;99.90;;;;;;4940070;29;20054;-88
2022/01/26 08:23:36;;;;;;;74.75;37.42;;;1.10;99.90;;;;;;4940218;29;20492;-88
2022/01/26 08:26:01;;;;;;;76.53;38.05;;;0.90;99.90;;;;;;4939646;29;20043;-87
2022/01/26 08:28:35;;;;;;;101.47;39.40;;;1.10;99.90;;;;;;4937951;29;20031;-87
2022/01/26 08:31:01;;;;;;;69.85;36.20;;;1.00;99.90;;;;;;4936910;29;20696;-87
2022/01/26 08:33:27;;;;;;;70.72;37.58;;;1.60;99.90;;;;;;4940081;29;20575;-87
2022/01/26 08:35:52;;;;;;;74.63;37.92;;;1.20;99.90;;;;;;4939452;29;20119;-87
2022/01/26 08:38:19;;;;;;;80.40;36.25;;;1.90;99.90;;;;;;4940086;29;20059;-87
2022/01/26 08:40:46;;;;;;;86.55;34.13;;;1.90;99.90;;;;;;4939471;29;20031;-87
2022/01/26 08:43:12;;;;;;;81.68;34.13;;;1.40;99.90;;;;;;4935028;29;20059;-87
2022/01/26 08:45:38;;;;;;;88.35;33.75;;;1.40;99.90;;;;;;4940703;29;20476;-88
2022/01/26 08:48:04;;;;;;;71.53;34.60;;;1.40;99.90;;;;;;4939236;29;20039;-87
2022/01/26 08:50:30;;;;;;;119.20;33.47;;;1.30;99.90;;;;;;4939048;29;20488;-87
2022/01/26 08:52:55;;;;;;;67.93;35.40;;;1.20;99.90;;;;;;4939306;29;20071;-87
2022/01/26 08:55:21;;;;;;;81.45;33.83;;;1.30;99.90;;;;;;4936357;29;20062;-87
2022/01/26 08:57:47;;;;;;;64.10;32.20;;;1.30;99.90;;;;;;4939105;29;20043;-88
2022/01/26 09:00:13;;;;;;;65.38;32.40;;;1.30;99.90;;;;;;4923461;29;20587;-87
2022/01/26 09:02:41;;;;;;;74.18;34.42;;;1.40;99.90;;;;;;4939050;29;20019;-87
2022/01/26 09:05:08;;;;;;;85.88;34.13;;;1.40;99.90;;;;;;4938880;29;20042;-87
2022/01/26 09:07:34;;;;;;;54.97;33.05;;;1.30;99.90;;;;;;4937694;29;20047;-87
2022/01/26 09:10:02;;;;;;;62.20;32.55;;;1.40;99.90;;;;;;4919416;29;20449;-87
2022/01/26 09:12:29;;;;;;;91.75;30.38;;;1.70;99.90;;;;;;4939543;29;20099;-88
2022/01/26 09:14:56;;;;;;;76.55;32.28;;;1.20;99.90;;;;;;4938804;29;20039;-88
2022/01/26 09:17:23;;;;;;;56.50;29.58;;;1.40;99.90;;;;;;4938826;29;20028;-87
2022/01/26 09:19:49;;;;;;;58.40;30.55;;;2.00;99.90;;;;;;4938430;29;20532;-87
2022/01/26 09:22:16;;;;;;;71.07;32.30;;;1.30;99.90;;;;;;4935705;29;20120;-87
2022/01/26 09:24:43;;;;;;;57.78;31.92;;;2.00;99.90;;;;;;4939038;29;20452;-87
2022/01/26 09:27:12;;;;;;;49.90;30.08;;;1.20;99.90;;;;;;4940262;29;20484;-87
2022/01/26 09:29:38;;;;;;;57.53;31.85;;;1.30;99.90;;;;;;4922381;29;20038;-88
2022/01/26 09:32:04;;;;;;;61.15;31.27;;;1.60;99.90;;;;;;4938341;29;20495;-87
2022/01/26 09:34:35;;;;;;;60.33;31.02;;;1.50;99.90;;;;;;4936925;29;20050;-88
2022/01/26 09:37:02;;;;;;;71.45;31.52;;;1.40;99.90;;;;;;4935625;29;20532;-87
2022/01/26 09:39:28;;;;;;;91.88;31.30;;;1.50;99.90;;;;;;4939138;29;20046;-88
2022/01/26 09:41:54;;;;;;;47.53;29.70;;;1.40;99.90;;;;;;4938572;29;20517;-87
2022/01/26 09:44:20;;;;;;;46.65;28.65;;;1.60;99.90;;;;;;4938876;29;20032;-87
2022/01/26 09:46:47;;;;;;;50.13;30.45;;;1.70;99.90;;;;;;4938202;29;20122;-87
2022/01/26 09:49:17;;;;;;;51.53;30.58;;;1.60;99.90;;;;;;4934211;29;20059;-87
2022/01/26 09:51:49;;;;;;;44.80;28.98;;;1.90;99.90;;;;;;4938072;29;20035;-87
2022/01/26 09:54:17;;;;;;;52.28;31.88;;;1.90;99.90;;;;;;4938463;29;20036;-87
2022/01/26 09:56:50;;;;;;;58.78;33.45;;;1.70;99.90;;;;;;4938965;29;20051;-87
2022/01/26 09:59:17;;;;;;;55.55;32.30;;;2.20;99.90;;;;;;4938227;29;20031;-87
2022/01/26 10:01:49;;;;;;;46.60;29.75;;;1.70;99.90;;;;;;4937570;29;20106;-87
2022/01/26 10:04:40;;;;;;;51.95;30.58;;;1.80;99.90;;;;;;4919804;29;20059;-87
2022/01/26 10:15:32;;;;;;;53.00;31.23;;;1.90;99.90;;;;;;4938517;29;20102;-87
2022/01/26 10:18:11;;;;;;;55.50;32.75;;;2.00;99.90;;;;;;4938262;29;20114;-87
2022/01/26 10:20:41;;;;;;;51.28;32.00;;;2.10;99.90;;;;;;4938182;29;20485;-87
2022/01/26 10:23:13;;;;;;;54.45;33.92;;;2.00;99.90;;;;;;4938203;29;20087;-88
2022/01/26 10:25:41;;;;;;;60.78;33.45;;;1.70;99.90;;;;;;4937340;29;20027;-87
2022/01/26 10:28:09;;;;;;;56.28;31.85;;;1.80;99.90;;;;;;4917221;29;20024;-88
2022/01/26 10:30:35;;;;;;;62.05;31.83;;;2.50;99.90;;;;;;4938005;29;20079;-87
2022/01/26 10:33:08;;;;;;;79.90;32.25;;;1.60;99.90;;;;;;4938369;29;20472;-88
2022/01/26 10:35:34;;;;;;;66.43;31.98;;;1.60;99.90;;;;;;4922177;29;20178;-88
2022/01/26 10:37:59;;;;;;;52.60;31.25;;;1.60;99.90;;;;;;4937781;29;20555;-87
2022/01/26 10:40:27;;;;;;;56.75;33.85;;;1.70;99.90;;;;;;4920919;29;20028;-88
2022/01/26 10:43:10;;;;;;;60.83;32.70;;;1.80;99.90;;;;;;4940179;29;20051;-88
2022/01/26 10:45:55;;;;;;;51.67;31.98;;;1.70;99.90;;;;;;4942223;29;20032;-88
2022/01/26 10:48:38;;;;;;;58.92;32.38;;;2.30;99.90;;;;;;4942095;29;20040;-88
2022/01/26 10:51:38;;;;;;;54.03;31.40;;;1.90;99.90;;;;;;4941500;29;20019;-88
2022/01/26 10:54:20;;;;;;;54.78;30.70;;;1.90;99.90;;;;;;4947722;29;20050;-88
2022/01/26 10:56:47;;;;;;;50.55;30.52;;;2.30;99.90;;;;;;4944477;29;20020;-88
2022/01/26 10:59:13;;;;;;;51.72;30.50;;;2.90;99.90;;;;;;4940972;29;20028;-88
2022/01/26 11:01:39;;;;;;;49.17;30.27;;;2.40;99.90;;;;;;4941162;29;20020;-88
2022/01/26 11:04:06;;;;;;;48.50;30.55;;;2.50;99.90;;;;;;4937992;29;20419;-87
2022/01/26 11:06:31;;;;;;;50.83;31.38;;;2.50;99.90;;;;;;4942067;29;20024;-88
2022/01/26 11:09:01;;;;;;;56.60;31.88;;;2.70;99.90;;;;;;4941722;29;20385;-88
2022/01/26 11:11:27;;;;;;;50.67;30.60;;;3.00;99.90;;;;;;4925712;29;20027;-88
2022/01/26 11:13:53;;;;;;;44.55;28.58;;;2.80;99.90;;;;;;4924804;29;20039;-88
2022/01/26 11:16:19;;;;;;;62.65;32.45;;;2.30;99.90;;;;;;4937925;29;20094;-88
2022/01/26 11:18:50;;;;;;;54.10;30.00;;;2.10;99.90;;;;;;4941046;29;20031;-88
2022/01/26 11:21:45;;;;;;;50.75;30.63;;;2.20;99.90;;;;;;4940667;29;20055;-88
2022/01/26 11:24:23;;;;;;;50.10;29.70;;;2.20;99.90;;;;;;4936835;29;20063;-88
2022/01/26 11:27:02;;;;;;;47.78;29.67;;;2.40;99.90;;;;;;4940953;29;20024;-87
2022/01/26 11:29:33;;;;;;;45.17;28.65;;;2.40;99.90;;;;;;4940801;29;20523;-90
2022/01/26 11:32:11;;;;;;;43.85;25.35;;;2.40;99.90;;;;;;4940908;29;20034;-88
2022/01/26 11:34:39;;;;;;;46.60;27.08;;;2.00;99.90;;;;;;4940214;29;20378;-88
2022/01/26 11:37:08;;;;;;;47.13;27.92;;;2.00;99.90;;;;;;4937368;29;20019;-88
2022/01/26 11:45:34;;;;;;;44.55;27.73;;;2.10;99.90;;;;;;4878559;29;20675;-87
2022/01/26 11:48:08;;;;;;;62.17;27.50;;;2.20;99.90;;;;;;4877475;29;20380;-88
2022/01/26 11:50:35;;;;;;;48.97;26.35;;;2.10;99.90;;;;;;4862188;29;20067;-88
2022/01/26 11:53:14;;;;;;;53.67;27.65;;;1.70;99.90;;;;;;4877567;29;20077;-87
2022/01/26 11:55:48;;;;;;;44.15;28.58;;;1.50;99.90;;;;;;4877608;29;20048;-88
2022/01/26 11:58:17;;;;;;;41.80;26.08;;;1.80;99.90;;;;;;4847192;29;20056;-88
2022/01/26 12:00:59;;;;;;;40.28;25.23;;;1.80;99.90;;;;;;4878267;29;20060;-88
2022/01/26 12:03:30;;;;;;;51.92;27.25;;;1.80;99.90;;;;;;4862454;29;20041;-88
2022/01/26 12:05:58;;;;;;;45.97;28.02;;;1.90;99.90;;;;;;4878061;29;20036;-88
2022/01/26 12:08:35;;;;;;;55.28;28.30;;;2.50;99.90;;;;;;4877421;29;20554;-87
2022/01/26 12:11:01;;;;;;;50.20;26.58;;;1.80;99.90;;;;;;4877273;29;20056;-88
2022/01/26 12:13:29;;;;;;;49.80;27.73;;;1.90;99.90;;;;;;4877172;29;20514;-87
2022/01/26 12:16:02;;;;;;;42.83;27.30;;;2.70;99.90;;;;;;4877340;29;20044;-88
2022/01/26 12:18:36;;;;;;;61.20;27.23;;;2.20;99.90;;;;;;4877121;29;20491;-88
2022/01/26 12:45:05;;;;;;;41.17;26.10;;;2.30;99.90;;;;;;4939574;29;20019;-88
2022/01/26 12:47:31;;;;;;;43.47;28.02;;;2.20;99.90;;;;;;4939900;29;20032;-88
2022/01/26 12:49:58;;;;;;;47.10;28.40;;;1.90;99.90;;;;;;4939635;29;20546;-90
2022/01/26 12:52:24;;;;;;;42.95;26.65;;;1.80;99.90;;;;;;4936948;29;20051;-90
2022/01/26 12:54:50;;;;;;;40.70;24.95;;;1.90;99.90;;;;;;4938456;29;20122;-88
2022/01/26 12:57:16;;;;;;;43.47;26.45;;;2.10;99.90;;;;;;4939507;29;20422;-87
2022/01/26 12:59:43;;;;;;;43.08;27.25;;;2.20;99.90;;;;;;4924914;29;20127;-90
2022/01/26 13:02:09;;;;;;;47.58;27.67;;;2.20;99.90;;;;;;4939225;28;20055;-87
2022/01/26 13:04:36;;;;;;;46.53;28.05;;;2.20;99.90;;;;;;4937395;29;20448;-90
2022/01/26 13:07:04;;;;;;;45.40;28.00;;;2.10;99.90;;;;;;4919329;29;20110;-88
2022/01/26 13:09:38;;;;;;;50.33;28.05;;;2.10;99.90;;;;;;4922827;29;20043;-88
2022/01/26 13:12:04;;;;;;;44.72;29.10;;;2.00;99.90;;;;;;4939203;29;20094;-89
2022/01/26 13:14:57;;;;;;;52.75;29.63;;;2.00;99.90;;;;;;4923089;29;20036;-88
2022/01/26 13:19:58;;;;;;;50.42;29.95;;;1.90;99.90;;;;;;4939116;29;20035;-87
2022/01/26 13:30:19;;;;;;;54.83;31.08;;;2.20;99.90;;;;;;4938976;29;20035;-87
2022/01/26 13:33:37;;;;;;;48.55;30.52;;;2.20;99.90;;;;;;4922945;29;20131;-88
2022/01/26 13:42:09;;;;;;;50.67;28.60;;;2.10;99.90;;;;;;4938210;29;20047;-88
2022/01/26 13:44:41;;;;;;;49.45;29.45;;;2.30;99.90;;;;;;4936489;29;20062;-87
2022/01/26 13:47:13;;;;;;;52.92;30.67;;;2.30;99.90;;;;;;4937803;29;20118;-88
2022/01/26 14:00:07;;;;;;;53.78;29.70;;;2.60;99.90;;;;;;4938449;29;20035;-87
2022/01/26 14:02:35;;;;;;;50.03;30.30;;;2.50;99.90;;;;;;4938470;29;20401;-87
2022/01/26 14:05:01;;;;;;;43.28;27.00;;;3.00;99.90;;;;;;4924486;29;20070;-87
2022/01/26 14:07:26;;;;;;;46.35;27.73;;;2.50;99.90;;;;;;4948899;29;20480;-88
2022/01/26 14:09:52;;;;;;;43.22;26.10;;;2.70;99.90;;;;;;4936534;29;20086;-87
2022/01/26 14:12:23;;;;;;;42.63;26.02;;;2.60;99.90;;;;;;4938635;29;20027;-87
2022/01/26 14:14:53;;;;;;;46.53;26.25;;;3.10;99.90;;;;;;4938257;28;20063;-87
2022/01/26 14:17:28;;;;;;;44.63;26.83;;;2.60;99.90;;;;;;4937890;29;20023;-87
2022/01/26 14:20:08;;;;;;;43.28;28.50;;;2.50;99.90;;;;;;4937821;29;20039;-88
2022/01/26 14:25:29;;;;;;;46.05;27.33;;;3.00;99.90;;;;;;4877702;29;20056;-87
2022/01/26 14:27:59;;;;;;;44.13;27.60;;;2.70;99.90;;;;;;4878248;29;20541;-88
2022/01/26 14:54:56;;;;;;;47.00;28.63;;;3.00;99.90;;;;;;4887446;29;20047;-88
2022/01/26 15:51:09;;;;;;;33.70;21.15;;;2.80;99.90;;;;;;4941074;29;20433;-88
2022/01/26 16:04:28;;;;;;;36.67;23.92;;;2.00;99.90;;;;;;4922425;29;20034;-88
2022/01/26 16:07:41;;;;;;;40.22;24.25;;;2.20;99.90;;;;;;4938945;29;20032;-88
2022/01/26 16:12:43;;;;;;;38.72;23.88;;;2.10;99.90;;;;;;4941428;29;20035;-88
2022/01/26 16:52:22;;;;;;;40.55;23.33;;;1.90;99.90;;;;;;4882186;29;20521;-87
2022/01/26 17:11:26;;;;;;;39.60;23.30;;;2.20;99.90;;;;;;4939254;29;20032;-88
2022/01/26 18:50:46;;;;;;;44.67;24.27;;;2.20;99.90;;;;;;4938734;29;20042;-88
2022/01/26 18:53:13;;;;;;;39.33;22.92;;;2.10;99.90;;;;;;4937466;29;20054;-88
2022/01/26 18:55:39;;;;;;;39.60;23.58;;;2.20;99.90;;;;;;4936839;29;20500;-88
2022/01/26 18:58:05;;;;;;;41.95;24.30;;;2.80;99.90;;;;;;4933743;29;22272;-88
2022/01/26 19:00:31;;;;;;;41.13;22.85;;;2.00;99.90;;;;;;4939085;29;20024;-88
2022/01/26 19:02:59;;;;;;;38.22;22.92;;;1.90;99.90;;;;;;4926009;29;20494;-88
2022/01/26 19:05:25;;;;;;;42.35;23.00;;;1.80;99.90;;;;;;4941717;29;20484;-88
2022/01/26 19:07:53;;;;;;;37.67;21.02;;;1.80;99.90;;;;;;4941269;29;20027;-88
2022/01/26 19:10:20;;;;;;;37.40;21.40;;;1.90;99.90;;;;;;4938502;29;20522;-88
2022/01/26 19:12:46;;;;;;;34.17;20.02;;;1.80;99.90;;;;;;4940141;29;20032;-88